EZY1326 EGKK-EGCC
Flight info
| Callsign | EZY1326 |
|---|---|
| Flight time | 0h 42m |
| Altitude | 20000 |
| Route | LAM N57 WELIN DCT TIMPO DCT ELVOS DCT TNT |
| Aircraft | A320/M-SDE3FGHIRWY/LB1 |
Departure
| Time | 2026-05-04 18:05 |
|---|---|
| Airport | London Gatwick Airport (EGKK) |
Arrival
| Time | 2026-05-04 18:48 |
|---|---|
| Airport | Manchester Airport (EGCC) |
| Time | Latitude | Longitude | Altitude | Speed | Heading |
|---|---|---|---|---|---|
| 2026-05-04 17:29 | 51.15498 | -0.16833 | 203 ft | 0 kts | 346° |
| 2026-05-04 17:38 | 51.15491 | -0.16831 | 214 ft | 2 kts | 346° |
| 2026-05-04 17:38 | 51.15474 | -0.16824 | 212 ft | 2 kts | 346° |
| 2026-05-04 17:38 | 51.15461 | -0.16810 | 215 ft | 2 kts | 275° |
| 2026-05-04 17:38 | 51.15460 | -0.16803 | 215 ft | 0 kts | 261° |
| 2026-05-04 17:39 | 51.15464 | -0.16759 | 212 ft | 0 kts | 262° |
| 2026-05-04 17:44 | 51.15456 | -0.16801 | 215 ft | 12 kts | 252° |
| 2026-05-04 17:44 | 51.15430 | -0.16973 | 208 ft | 20 kts | 258° |
| 2026-05-04 17:44 | 51.15391 | -0.17188 | 206 ft | 20 kts | 248° |
| 2026-05-04 17:44 | 51.15325 | -0.17362 | 210 ft | 17 kts | 226° |
| 2026-05-04 17:45 | 51.15291 | -0.17529 | 205 ft | 15 kts | 257° |
| 2026-05-04 17:45 | 51.15267 | -0.17697 | 209 ft | 16 kts | 258° |
| 2026-05-04 17:45 | 51.15241 | -0.17891 | 211 ft | 21 kts | 258° |
| 2026-05-04 17:45 | 51.15207 | -0.18142 | 206 ft | 25 kts | 256° |
| 2026-05-04 17:46 | 51.15173 | -0.18413 | 214 ft | 19 kts | 260° |
| 2026-05-04 17:46 | 51.15151 | -0.18555 | 205 ft | 13 kts | 259° |
| 2026-05-04 17:46 | 51.15132 | -0.18713 | 205 ft | 17 kts | 259° |
| 2026-05-04 17:46 | 51.15105 | -0.18911 | 206 ft | 20 kts | 257° |
| 2026-05-04 17:47 | 51.15074 | -0.19145 | 207 ft | 23 kts | 257° |
| 2026-05-04 17:47 | 51.15047 | -0.19349 | 205 ft | 13 kts | 257° |
| 2026-05-04 17:47 | 51.15022 | -0.19529 | 207 ft | 20 kts | 256° |
| 2026-05-04 17:47 | 51.14990 | -0.19747 | 204 ft | 21 kts | 257° |
| 2026-05-04 17:48 | 51.14958 | -0.19981 | 203 ft | 22 kts | 256° |
| 2026-05-04 17:48 | 51.14915 | -0.20225 | 208 ft | 24 kts | 252° |
| 2026-05-04 17:48 | 51.14900 | -0.20366 | 208 ft | 9 kts | 262° |
| 2026-05-04 17:48 | 51.14880 | -0.20532 | 211 ft | 14 kts | 259° |
| 2026-05-04 17:49 | 51.14858 | -0.20698 | 205 ft | 17 kts | 256° |
| 2026-05-04 17:49 | 51.14832 | -0.20885 | 204 ft | 20 kts | 256° |
| 2026-05-04 17:49 | 51.14800 | -0.21109 | 208 ft | 13 kts | 254° |
| 2026-05-04 17:49 | 51.14774 | -0.21211 | 205 ft | 0 kts | 251° |
| 2026-05-04 17:51 | 51.14771 | -0.21224 | 203 ft | 7 kts | 251° |
| 2026-05-04 17:51 | 51.14761 | -0.21291 | 202 ft | 1 kts | 256° |
| 2026-05-04 17:52 | 51.14754 | -0.21339 | 211 ft | 0 kts | 257° |
| 2026-05-04 17:54 | 51.14752 | -0.21350 | 209 ft | 7 kts | 257° |
| 2026-05-04 17:55 | 51.14743 | -0.21384 | 204 ft | 0 kts | 233° |
| 2026-05-04 17:58 | 51.14735 | -0.21395 | 212 ft | 1 kts | 217° |
| 2026-05-04 17:58 | 51.14728 | -0.21399 | 210 ft | 2 kts | 202° |
| 2026-05-04 17:59 | 51.14713 | -0.21398 | 203 ft | 0 kts | 171° |
| 2026-05-04 17:59 | 51.14702 | -0.21395 | 204 ft | 2 kts | 169° |
| 2026-05-04 18:00 | 51.14687 | -0.21386 | 210 ft | 4 kts | 156° |
| 2026-05-04 18:00 | 51.14672 | -0.21369 | 206 ft | 0 kts | 140° |
| 2026-05-04 18:00 | 51.14669 | -0.21364 | 213 ft | 4 kts | 140° |
| 2026-05-04 18:00 | 51.14655 | -0.21348 | 207 ft | 0 kts | 149° |
| 2026-05-04 18:01 | 51.14651 | -0.21345 | 209 ft | 0 kts | 150° |
| 2026-05-04 18:01 | 51.14648 | -0.21342 | 208 ft | 3 kts | 150° |
| 2026-05-04 18:02 | 51.14610 | -0.21322 | 205 ft | 3 kts | 163° |
| 2026-05-04 18:02 | 51.14552 | -0.21281 | 213 ft | 9 kts | 145° |
| 2026-05-04 18:02 | 51.14518 | -0.21205 | 215 ft | 8 kts | 102° |
| 2026-05-04 18:02 | 51.14518 | -0.21150 | 205 ft | 0 kts | 77° |
| 2026-05-04 18:04 | 51.14638 | -0.20278 | 207 ft | 104 kts | 78° |
| 2026-05-04 18:05 | 51.14833 | -0.18872 | 209 ft | 155 kts | 77° |
| 2026-05-04 18:05 | 51.15060 | -0.17140 | 741 ft | 159 kts | 78° |
| 2026-05-04 18:05 | 51.15261 | -0.15387 | 1444 ft | 162 kts | 79° |
| 2026-05-04 18:05 | 51.15423 | -0.13595 | 2129 ft | 164 kts | 81° |
| 2026-05-04 18:06 | 51.15929 | -0.09755 | 2903 ft | 198 kts | 74° |
| 2026-05-04 18:06 | 51.16314 | -0.07518 | 3240 ft | 217 kts | 68° |
| 2026-05-04 18:06 | 51.17148 | -0.05405 | 3672 ft | 232 kts | 49° |
| 2026-05-04 18:07 | 51.18220 | -0.03315 | 4142 ft | 253 kts | 51° |
| 2026-05-04 18:07 | 51.19334 | -0.01059 | 4793 ft | 269 kts | 51° |
| 2026-05-04 18:07 | 51.20542 | 0.01432 | 5036 ft | 299 kts | 52° |
| 2026-05-04 18:07 | 51.21815 | 0.04074 | 6008 ft | 293 kts | 52° |
| 2026-05-04 18:08 | 51.22906 | 0.06342 | 7220 ft | 281 kts | 52° |
| 2026-05-04 18:08 | 51.23734 | 0.08066 | 7909 ft | 282 kts | 52° |
| 2026-05-04 18:08 | 51.24792 | 0.10712 | 8743 ft | 285 kts | 66° |
| 2026-05-04 18:08 | 51.25366 | 0.13751 | 9556 ft | 289 kts | 80° |
| 2026-05-04 18:09 | 51.26233 | 0.21203 | 11361 ft | 297 kts | 79° |
| 2026-05-04 18:09 | 51.26878 | 0.26679 | 12679 ft | 301 kts | 79° |
| 2026-05-04 18:10 | 51.27377 | 0.29920 | 13444 ft | 303 kts | 67° |
| 2026-05-04 18:10 | 51.28526 | 0.32736 | 14132 ft | 306 kts | 45° |
| 2026-05-04 18:10 | 51.30253 | 0.34657 | 14762 ft | 310 kts | 22° |
| 2026-05-04 18:10 | 51.32363 | 0.35411 | 15376 ft | 315 kts | 0° |
| 2026-05-04 18:11 | 51.34520 | 0.34807 | 15980 ft | 320 kts | 339° |
| 2026-05-04 18:11 | 51.36601 | 0.33480 | 16582 ft | 325 kts | 337° |
| 2026-05-04 18:11 | 51.38711 | 0.32102 | 17175 ft | 329 kts | 337° |
| 2026-05-04 18:11 | 51.40837 | 0.30703 | 17804 ft | 333 kts | 337° |
| 2026-05-04 18:12 | 51.42988 | 0.29289 | 18412 ft | 336 kts | 337° |
| 2026-05-04 18:12 | 51.44823 | 0.28092 | 18866 ft | 339 kts | 337° |
| 2026-05-04 18:12 | 51.47030 | 0.26656 | 19414 ft | 343 kts | 337° |
| 2026-05-04 18:12 | 51.49254 | 0.25208 | 19885 ft | 347 kts | 337° |
| 2026-05-04 18:13 | 51.51485 | 0.23753 | 20014 ft | 349 kts | 337° |
| 2026-05-04 18:13 | 51.53801 | 0.22242 | 20039 ft | 369 kts | 337° |
| 2026-05-04 18:13 | 51.58808 | 0.18961 | 20037 ft | 407 kts | 336° |
| 2026-05-04 18:14 | 51.61466 | 0.17213 | 20038 ft | 418 kts | 335° |
| 2026-05-04 18:14 | 51.64054 | 0.15044 | 20038 ft | 418 kts | 326° |
| 2026-05-04 18:14 | 51.66366 | 0.12230 | 20037 ft | 417 kts | 316° |
| 2026-05-04 18:15 | 51.70421 | 0.05620 | 20038 ft | 417 kts | 312° |
| 2026-05-04 18:15 | 51.74509 | -0.01111 | 20064 ft | 418 kts | 313° |
| 2026-05-04 18:15 | 51.76528 | -0.04430 | 20058 ft | 418 kts | 313° |
| 2026-05-04 18:16 | 51.78586 | -0.07815 | 20059 ft | 418 kts | 313° |
| 2026-05-04 18:16 | 51.80625 | -0.11173 | 20058 ft | 417 kts | 313° |
| 2026-05-04 18:16 | 51.82627 | -0.14478 | 20064 ft | 417 kts | 312° |
| 2026-05-04 18:17 | 51.86667 | -0.21178 | 20045 ft | 416 kts | 312° |
| 2026-05-04 18:17 | 51.88713 | -0.24577 | 20044 ft | 415 kts | 312° |
| 2026-05-04 18:17 | 51.92719 | -0.31241 | 20041 ft | 415 kts | 312° |
| 2026-05-04 18:18 | 51.94725 | -0.34592 | 20041 ft | 415 kts | 312° |
| 2026-05-04 18:18 | 51.96735 | -0.37953 | 20038 ft | 415 kts | 312° |
| 2026-05-04 18:18 | 51.98747 | -0.41314 | 20038 ft | 415 kts | 312° |
| 2026-05-04 18:18 | 52.00749 | -0.44669 | 20038 ft | 415 kts | 312° |
| 2026-05-04 18:19 | 52.04758 | -0.51406 | 20050 ft | 415 kts | 311° |
| 2026-05-04 18:19 | 52.06761 | -0.54777 | 20054 ft | 414 kts | 311° |
| 2026-05-04 18:19 | 52.08758 | -0.58139 | 20057 ft | 414 kts | 311° |
| 2026-05-04 18:20 | 52.10760 | -0.61516 | 20058 ft | 413 kts | 311° |
| 2026-05-04 18:20 | 52.12751 | -0.64883 | 20058 ft | 413 kts | 311° |
| 2026-05-04 18:20 | 52.14745 | -0.68254 | 20057 ft | 413 kts | 311° |
| 2026-05-04 18:20 | 52.16708 | -0.71575 | 20055 ft | 413 kts | 311° |
| 2026-05-04 18:21 | 52.18698 | -0.74953 | 20058 ft | 413 kts | 311° |
| 2026-05-04 18:21 | 52.20684 | -0.78327 | 20057 ft | 413 kts | 311° |
| 2026-05-04 18:21 | 52.22651 | -0.81671 | 20051 ft | 413 kts | 311° |
| 2026-05-04 18:21 | 52.24757 | -0.84945 | 20050 ft | 415 kts | 319° |
| 2026-05-04 18:22 | 52.27139 | -0.87633 | 20049 ft | 417 kts | 327° |
| 2026-05-04 18:22 | 52.29578 | -0.90047 | 20062 ft | 417 kts | 326° |
| 2026-05-04 18:22 | 52.32059 | -0.92509 | 20065 ft | 416 kts | 326° |
| 2026-05-04 18:22 | 52.34540 | -0.94983 | 20069 ft | 416 kts | 326° |
| 2026-05-04 18:23 | 52.36982 | -0.97422 | 20067 ft | 415 kts | 326° |
| 2026-05-04 18:23 | 52.39454 | -0.99886 | 20071 ft | 415 kts | 326° |
| 2026-05-04 18:23 | 52.41920 | -1.02346 | 20067 ft | 415 kts | 326° |
| 2026-05-04 18:23 | 52.44402 | -1.04831 | 20057 ft | 415 kts | 326° |
| 2026-05-04 18:24 | 52.46853 | -1.07290 | 19920 ft | 408 kts | 326° |
| 2026-05-04 18:24 | 52.49246 | -1.09687 | 19675 ft | 398 kts | 326° |
| 2026-05-04 18:24 | 52.51599 | -1.12049 | 19430 ft | 395 kts | 326° |
| 2026-05-04 18:24 | 52.53933 | -1.14401 | 19187 ft | 392 kts | 326° |
| 2026-05-04 18:25 | 52.56249 | -1.16737 | 18944 ft | 390 kts | 326° |
| 2026-05-04 18:25 | 52.58530 | -1.19040 | 18701 ft | 380 kts | 326° |
| 2026-05-04 18:25 | 52.60755 | -1.21287 | 18489 ft | 372 kts | 326° |
| 2026-05-04 18:25 | 52.63022 | -1.23580 | 18067 ft | 388 kts | 327° |
| 2026-05-04 18:26 | 52.65321 | -1.25904 | 17530 ft | 388 kts | 327° |
| 2026-05-04 18:26 | 52.67469 | -1.28439 | 17009 ft | 383 kts | 318° |
| 2026-05-04 18:26 | 52.69517 | -1.31312 | 16481 ft | 380 kts | 318° |
| 2026-05-04 18:26 | 52.71519 | -1.34120 | 16091 ft | 377 kts | 318° |
| 2026-05-04 18:27 | 52.73469 | -1.36859 | 16033 ft | 376 kts | 318° |
| 2026-05-04 18:27 | 52.75461 | -1.39658 | 16056 ft | 376 kts | 318° |
| 2026-05-04 18:27 | 52.77453 | -1.42465 | 16055 ft | 376 kts | 318° |
| 2026-05-04 18:27 | 52.79442 | -1.45273 | 16059 ft | 375 kts | 318° |
| 2026-05-04 18:28 | 52.81418 | -1.48075 | 16053 ft | 376 kts | 318° |
| 2026-05-04 18:28 | 52.83398 | -1.50887 | 16057 ft | 375 kts | 318° |
| 2026-05-04 18:28 | 52.85376 | -1.53691 | 16051 ft | 376 kts | 318° |
| 2026-05-04 18:28 | 52.86845 | -1.55773 | 15878 ft | 376 kts | 318° |
| 2026-05-04 18:29 | 52.88819 | -1.58569 | 15321 ft | 377 kts | 318° |
| 2026-05-04 18:29 | 52.90821 | -1.61408 | 14677 ft | 378 kts | 318° |
| 2026-05-04 18:29 | 52.92814 | -1.64237 | 14049 ft | 379 kts | 318° |
| 2026-05-04 18:29 | 52.94800 | -1.67063 | 13340 ft | 379 kts | 318° |
| 2026-05-04 18:30 | 52.98801 | -1.72791 | 11838 ft | 381 kts | 318° |
| 2026-05-04 18:30 | 53.00810 | -1.75672 | 11114 ft | 380 kts | 318° |
| 2026-05-04 18:30 | 53.02806 | -1.78536 | 10404 ft | 378 kts | 318° |
| 2026-05-04 18:31 | 53.04794 | -1.81391 | 9680 ft | 377 kts | 319° |
| 2026-05-04 18:31 | 53.06770 | -1.84231 | 8908 ft | 374 kts | 319° |
| 2026-05-04 18:31 | 53.08727 | -1.87048 | 8161 ft | 372 kts | 319° |
| 2026-05-04 18:31 | 53.10655 | -1.89828 | 7452 ft | 369 kts | 319° |
| 2026-05-04 18:32 | 53.12586 | -1.92617 | 7137 ft | 353 kts | 319° |
| 2026-05-04 18:32 | 53.14368 | -1.95194 | 7040 ft | 334 kts | 319° |
| 2026-05-04 18:32 | 53.16069 | -1.97656 | 7051 ft | 313 kts | 319° |
| 2026-05-04 18:32 | 53.17664 | -1.99959 | 7055 ft | 294 kts | 319° |
| 2026-05-04 18:33 | 53.19167 | -2.02127 | 7055 ft | 277 kts | 319° |
| 2026-05-04 18:33 | 53.20582 | -2.04174 | 7054 ft | 261 kts | 319° |
| 2026-05-04 18:33 | 53.21905 | -2.06095 | 7053 ft | 245 kts | 319° |
| 2026-05-04 18:33 | 53.23149 | -2.07904 | 7055 ft | 231 kts | 319° |
| 2026-05-04 18:34 | 53.24324 | -2.09611 | 7055 ft | 218 kts | 318° |
| 2026-05-04 18:34 | 53.25442 | -2.11232 | 6992 ft | 207 kts | 318° |
| 2026-05-04 18:34 | 53.26517 | -2.12793 | 6807 ft | 204 kts | 318° |
| 2026-05-04 18:34 | 53.27583 | -2.14344 | 6436 ft | 202 kts | 318° |
| 2026-05-04 18:35 | 53.28639 | -2.15888 | 6048 ft | 201 kts | 318° |
| 2026-05-04 18:35 | 53.29689 | -2.17424 | 5655 ft | 200 kts | 318° |
| 2026-05-04 18:35 | 53.30733 | -2.18952 | 5275 ft | 199 kts | 318° |
| 2026-05-04 18:35 | 53.31754 | -2.20444 | 5018 ft | 192 kts | 319° |
| 2026-05-04 18:36 | 53.32744 | -2.21888 | 5022 ft | 186 kts | 319° |
| 2026-05-04 18:36 | 53.33676 | -2.23309 | 5010 ft | 179 kts | 311° |
| 2026-05-04 18:36 | 53.34377 | -2.24998 | 5008 ft | 176 kts | 307° |
| 2026-05-04 18:36 | 53.35377 | -2.26082 | 5006 ft | 176 kts | 346° |
| 2026-05-04 18:37 | 53.36595 | -2.25953 | 5008 ft | 180 kts | 19° |
| 2026-05-04 18:37 | 53.37589 | -2.24688 | 5013 ft | 183 kts | 51° |
| 2026-05-04 18:37 | 53.38347 | -2.22964 | 5017 ft | 184 kts | 52° |
| 2026-05-04 18:37 | 53.39108 | -2.21249 | 5012 ft | 184 kts | 52° |
| 2026-05-04 18:38 | 53.39874 | -2.19534 | 5015 ft | 183 kts | 51° |
| 2026-05-04 18:38 | 53.40643 | -2.17821 | 5018 ft | 183 kts | 50° |
| 2026-05-04 18:38 | 53.41406 | -2.16121 | 5011 ft | 183 kts | 52° |
| 2026-05-04 18:38 | 53.42171 | -2.14412 | 5009 ft | 184 kts | 52° |
| 2026-05-04 18:39 | 53.42940 | -2.12690 | 5010 ft | 184 kts | 50° |
| 2026-05-04 18:39 | 53.43706 | -2.10976 | 5010 ft | 184 kts | 52° |
| 2026-05-04 18:39 | 53.44473 | -2.09258 | 5009 ft | 183 kts | 50° |
| 2026-05-04 18:39 | 53.45235 | -2.07549 | 5009 ft | 183 kts | 50° |
| 2026-05-04 18:40 | 53.45964 | -2.05907 | 5004 ft | 174 kts | 51° |
| 2026-05-04 18:40 | 53.46691 | -2.04274 | 4952 ft | 172 kts | 51° |
| 2026-05-04 18:40 | 53.47403 | -2.02672 | 4595 ft | 168 kts | 51° |
| 2026-05-04 18:40 | 53.48088 | -2.01130 | 4138 ft | 166 kts | 51° |
| 2026-05-04 18:41 | 53.48784 | -1.99568 | 3639 ft | 167 kts | 50° |
| 2026-05-04 18:41 | 53.49652 | -1.98328 | 3175 ft | 163 kts | 22° |
| 2026-05-04 18:41 | 53.50740 | -1.98079 | 2783 ft | 160 kts | 348° |
| 2026-05-04 18:41 | 53.51702 | -1.98919 | 2370 ft | 157 kts | 313° |
| 2026-05-04 18:42 | 53.52197 | -2.00525 | 1957 ft | 157 kts | 281° |
| 2026-05-04 18:42 | 53.52063 | -2.02317 | 1700 ft | 158 kts | 246° |
| 2026-05-04 18:42 | 53.51315 | -2.03638 | 1589 ft | 161 kts | 203° |
| 2026-05-04 18:42 | 53.50234 | -2.04142 | 1493 ft | 162 kts | 202° |
| 2026-05-04 18:43 | 53.49183 | -2.04822 | 1641 ft | 161 kts | 203° |
| 2026-05-04 18:43 | 53.48149 | -2.05496 | 1877 ft | 163 kts | 202° |
| 2026-05-04 18:43 | 53.47073 | -2.06197 | 1991 ft | 164 kts | 203° |
| 2026-05-04 18:43 | 53.45998 | -2.06919 | 1999 ft | 168 kts | 209° |
| 2026-05-04 18:44 | 53.45038 | -2.07992 | 2006 ft | 165 kts | 225° |
| 2026-05-04 18:44 | 53.44761 | -2.08411 | 2008 ft | 164 kts | 227° |
| 2026-05-04 18:44 | 53.43464 | -2.10767 | 2011 ft | 164 kts | 233° |
| 2026-05-04 18:44 | 53.42732 | -2.12225 | 2014 ft | 168 kts | 233° |
| 2026-05-04 18:45 | 53.42009 | -2.13725 | 1880 ft | 159 kts | 236° |
| 2026-05-04 18:45 | 53.41351 | -2.15151 | 1660 ft | 154 kts | 235° |
| 2026-05-04 18:45 | 53.40684 | -2.16542 | 1483 ft | 150 kts | 234° |
| 2026-05-04 18:45 | 53.40032 | -2.17881 | 1324 ft | 146 kts | 233° |
| 2026-05-04 18:46 | 53.39399 | -2.19170 | 1140 ft | 146 kts | 233° |
| 2026-05-04 18:46 | 53.38741 | -2.20528 | 968 ft | 148 kts | 232° |
| 2026-05-04 18:46 | 53.38110 | -2.21825 | 811 ft | 143 kts | 232° |
| 2026-05-04 18:46 | 53.37508 | -2.23114 | 637 ft | 139 kts | 231° |
| 2026-05-04 18:47 | 53.36895 | -2.24374 | 501 ft | 141 kts | 230° |
| 2026-05-04 18:47 | 53.36273 | -2.25666 | 359 ft | 142 kts | 230° |
| 2026-05-04 18:47 | 53.35666 | -2.26907 | 277 ft | 132 kts | 229° |
| 2026-05-04 18:47 | 53.35144 | -2.27973 | 253 ft | 87 kts | 231° |
| 2026-05-04 18:48 | 53.34977 | -2.28393 | 259 ft | 5 kts | 258° |
| 2026-05-04 18:48 | 53.34970 | -2.28440 | 260 ft | 3 kts | 257° |
| 2026-05-04 18:48 | 53.34963 | -2.28485 | 260 ft | 4 kts | 255° |
| 2026-05-04 18:48 | 53.34953 | -2.28558 | 260 ft | 8 kts | 258° |
| 2026-05-04 18:49 | 53.34943 | -2.28641 | 261 ft | 6 kts | 262° |
| 2026-05-04 18:49 | 53.34945 | -2.28701 | 261 ft | 6 kts | 290° |
| 2026-05-04 18:49 | 53.34995 | -2.28750 | 261 ft | 9 kts | 4° |
| 2026-05-04 18:49 | 53.35019 | -2.28732 | 260 ft | 0 kts | 40° |
| 2026-05-04 18:50 | 53.35020 | -2.28730 | 260 ft | 1 kts | 41° |
| 2026-05-04 18:50 | 53.35072 | -2.28638 | 259 ft | 16 kts | 46° |
| 2026-05-04 18:51 | 53.35138 | -2.28502 | 257 ft | 15 kts | 57° |
| 2026-05-04 18:51 | 53.35199 | -2.28368 | 256 ft | 14 kts | 51° |
| 2026-05-04 18:51 | 53.35262 | -2.28245 | 255 ft | 14 kts | 47° |
| 2026-05-04 18:51 | 53.35342 | -2.28184 | 254 ft | 12 kts | 19° |
| 2026-05-04 18:52 | 53.35422 | -2.28160 | 254 ft | 11 kts | 7° |
| 2026-05-04 18:52 | 53.35490 | -2.28126 | 253 ft | 10 kts | 25° |
| 2026-05-04 18:52 | 53.35544 | -2.28063 | 253 ft | 9 kts | 44° |
| 2026-05-04 18:52 | 53.35585 | -2.27984 | 252 ft | 9 kts | 51° |
| 2026-05-04 18:53 | 53.35626 | -2.27907 | 251 ft | 9 kts | 40° |
| 2026-05-04 18:53 | 53.35682 | -2.27887 | 251 ft | 8 kts | 6° |
| 2026-05-04 18:53 | 53.35752 | -2.27874 | 250 ft | 13 kts | 6° |
| 2026-05-04 18:53 | 53.35766 | -2.27871 | 250 ft | 0 kts | 6° |
| 2026-05-04 18:55 | 53.35767 | -2.27871 | 250 ft | 2 kts | 6° |
| 2026-05-04 18:55 | 53.35897 | -2.27857 | 250 ft | 32 kts | 5° |